x

Sentry Shoal (46131) Wave Buoy

8:00 - Thu 17th Aug 2017 All times are PDT. -7 hours from GMT.

  • Sig Wave height 0.3ft
  • Peak Period 2s
  • Wind
    7mph, 7mph gusts
  • Sea Temp 65°f
  • Aire Temp 66°f
  • Sea Pressure 1019mb
  • Sentry Shoal
  • Sentry Shoal

More Historic Weather Station data

Upgrade to MSW Pro to gain access to the past 30 days of data for over 8000 Wavebouys and Weather Stations around the globe.

Join

Comparision Forecast

View Surf forecast
   
jue 08/17 8:00 0.3ft 2s 7 7 mph 1019mb 65f 66f
7:00 0.3ft 3s 9 9 mph 1018.8mb 66f 67f
6:00  -  2s 9 9 mph 1018.9mb 67f 67f
5:00 0.3ft 3s 7 9 mph 1019.4mb 66f 67f
4:00 0.3ft 2s 7 7 mph 1019.9mb 67f 66f
3:00 0.3ft 3s 4 7 mph 1020.5mb 67f 65f
2:00 0.3ft 4s 4 4 mph 1020.9mb 67f 65f
1:00 0.3ft 3s 4 4 mph 1021mb 66f 64f
12:00 0.3ft 2s  -  2 mph 1021.4mb 65f 64f
11:00 0.3ft 2s 4 4 mph 1021.7mb 64f 62f
10:00 0.3ft 2s 7 7 mph 1021.8mb 64f 62f
9:00 0.3ft 2s 7 9 mph 1021.5mb 64f 61f
8:00 0.3ft 2s 9 9 mph 1021.3mb 64f 61f
7:00 0.7ft 2s 9 9 mph 1020.9mb 64f 60f
6:00 0.7ft 2s 7 9 mph 1020.5mb 64f 60f
5:00 0.7ft 2s 9 11 mph 1020mb 64f 61f
4:00 0.7ft 3s 11 13 mph 1019.7mb 64f 61f
3:00 1ft 2s 11 13 mph 1019.3mb 64f 62f
2:00 1ft 2s 13 18 mph 1019mb 64f 63f
1:00 1ft 2s 16 18 mph 1018.8mb 64f 64f
12:00 1ft 2s 13 16 mph 1018.5mb 64f 64f
mié 08/16 11:00 0.3ft 3s 13 16 mph 1018.3mb 65f 65f
10:00 0.3ft 3s 4 9 mph 1018.3mb 65f 65f
9:00 0.7ft 3s 4 7 mph 1017.9mb 65f 66f
8:00 0.7ft 3s 2 4 mph 1017.3mb 66f 66f
7:00 1ft 3s 4 4 mph 1017.2mb 65f 65f
6:00 0.7ft 3s 7 7 mph 1017.2mb 65f 66f
5:00 0.7ft 3s 7 9 mph 1017.4mb 66f 65f
4:00 0.7ft 3s 7 9 mph 1017.7mb 64f 65f
3:00 0.3ft 2s 7 9 mph 1017.8mb 64f 65f
2:00 0.3ft 2s 7 9 mph 1017.8mb 65f 65f
1:00 0.3ft 2s 7 9 mph 1018mb 65f 64f
12:00 0.3ft 2s 2 4 mph 1018.3mb 65f 64f
11:00 0.3ft 2s  -  2 mph 1018.1mb 64f 64f
10:00 0.3ft 2s 2 4 mph 1018.1mb 64f 63f
9:00 0.3ft 2s 4 7 mph 1017.7mb 63f 62f
8:00 0.3ft 3s 7 7 mph 1017.5mb 63f 61f
7:00 0.3ft 2s 4 7 mph 1017.4mb 63f 61f
6:00 0.3ft 2s 4 7 mph 1016.9mb 64f 61f
5:00 0.7ft 3s 11 11 mph 1016.9mb 63f 60f
4:00 1ft 2s 11 13 mph 1017mb 63f 60f
3:00 0.7ft 2s 13 18 mph 1016.9mb 63f 61f
2:00 0.3ft 2s 7 7 mph 1016.3mb 64f 63f
1:00 0.3ft 4s 9 9 mph 1015.6mb 64f 65f
12:00 0.3ft 6s 7 9 mph 1015.5mb 64f 64f
mar 08/15 11:00 0.3ft 2s 9 9 mph 1015.5mb 65f 65f
10:00 0.3ft 2s 4 9 mph 1015.1mb 65f 67f
9:00 0.3ft 2s 4 7 mph 1014.8mb 65f 69f
8:00  -  2s 7 7 mph 1014.3mb 65f 69f
7:00 0.3ft 2s 4 4 mph 1014.4mb 66f 69f
6:00 0.3ft 3s 4 4 mph 1014.7mb 66f 68f
5:00 0.3ft 3s 4 4 mph 1014.7mb 65f 67f
4:00 0.3ft 3s 4 4 mph 1014.8mb 65f 67f
3:00 0.3ft 3s 4 4 mph 1015.1mb 65f 67f
2:00 0.3ft 2s 2 4 mph 1015.2mb 65f 65f
1:00 0.3ft 2s 4 4 mph 1015.3mb 63f 63f
12:00 0.7ft 2s 7 9 mph 1015.5mb 63f 62f
11:00 0.7ft 2s 11 13 mph 1015.8mb 63f 61f
10:00 0.7ft 2s 11 13 mph 1015.5mb 62f 60f
9:00 0.7ft 2s 13 16 mph 1015.3mb 62f 60f
8:00 1ft 3s 11 11 mph 1015.1mb 62f 59f
7:00 1ft 3s 13 16 mph 1014.6mb 62f 59f
6:00 1ft 3s 16 18 mph 1014.6mb 62f 59f
5:00 1.3ft 3s 13 16 mph 1014.2mb 63f 59f
4:00 1ft 2s 16 18 mph 1014mb 63f 59f
3:00 1ft 2s 13 18 mph 1013.8mb 63f 60f
2:00 1ft 2s 18 20 mph 1013.6mb 62f 61f
1:00 1ft 2s 16 18 mph 1013.5mb 63f 61f
12:00 0.7ft 2s 13 18 mph 1013.5mb 63f 62f
lun 08/14 11:00 0.3ft 7s 13 16 mph 1013.4mb 63f 63f
10:00 0.3ft 3s 4 4 mph 1013.6mb 64f 63f
9:00 0.3ft 2s 4 4 mph 1013.7mb 64f 63f
8:00 0.3ft 2s 2 2 mph 1013.9mb 64f 64f
7:00 0.3ft 2s 2 2 mph 1013.9mb 64f 64f
6:00 0.3ft 2s 2 4 mph 1014mb 65f 65f
4:00 0.3ft 2s 4 4 mph 1014.6mb 65f 64f
3:00 0.3ft 2s 2 4 mph 1015mb 65f 64f
2:00 0.3ft 3s 2 4 mph 1015.7mb 65f 63f
1:00 0.3ft 3s  -  2 mph 1015.7mb 64f 63f
12:00 0.3ft 2s 4 4 mph 1016.2mb 63f 61f
11:00 0.3ft 2s 9 9 mph 1016.1mb 62f 60f
10:00 0.7ft 2s 9 11 mph 1016.3mb 62f 58f
9:00 0.7ft 2s 11 11 mph 1016.4mb 62f 58f
8:00 0.3ft 2s 9 11 mph 1016.4mb 62f 57f
7:00 0.7ft 3s 7 11 mph 1016.3mb 62f 57f
6:00 1ft 3s 13 16 mph 1016.2mb 62f 58f
5:00 1ft 3s 16 18 mph 1016.2mb 62f 59f